sensor_id;sensor_type;location;lat;lon;timestamp;pressure;altitude;pressure_sealevel;temperature;humidity
74329;BME280;62749;51.982;5.916;2024-01-30T00:00:40;78448.84;;;-147.22;79.42
74329;BME280;62749;51.982;5.916;2024-01-30T00:03:10;78456.91;;;-147.22;79.51
74329;BME280;62749;51.982;5.916;2024-01-30T00:05:39;78464.97;;;-147.22;79.50
74329;BME280;62749;51.982;5.916;2024-01-30T00:08:09;78464.97;;;-147.22;79.88
74329;BME280;62749;51.982;5.916;2024-01-30T00:10:38;78467.00;;;-147.22;79.70
74329;BME280;62749;51.982;5.916;2024-01-30T00:13:10;78467.00;;;-147.22;79.47
74329;BME280;62749;51.982;5.916;2024-01-30T00:15:40;78464.97;;;-147.22;79.93
74329;BME280;62749;51.982;5.916;2024-01-30T00:18:10;78456.91;;;-147.22;79.93
74329;BME280;62749;51.982;5.916;2024-01-30T00:20:40;78444.81;;;-147.22;79.72
74329;BME280;62749;51.982;5.916;2024-01-30T00:23:09;78454.88;;;-147.22;79.16
74329;BME280;62749;51.982;5.916;2024-01-30T00:25:39;78452.88;;;-147.22;79.37
74329;BME280;62749;51.982;5.916;2024-01-30T00:28:11;78448.84;;;-147.22;79.49
74329;BME280;62749;51.982;5.916;2024-01-30T00:30:40;78452.88;;;-147.22;78.91
74329;BME280;62749;51.982;5.916;2024-01-30T00:33:10;78448.84;;;-147.22;79.31
74329;BME280;62749;51.982;5.916;2024-01-30T00:35:40;78440.78;;;-147.22;79.44
74329;BME280;62749;51.982;5.916;2024-01-30T00:38:09;78440.78;;;-147.22;79.35
74329;BME280;62749;51.982;5.916;2024-01-30T00:40:38;78444.81;;;-147.22;79.33
74329;BME280;62749;51.982;5.916;2024-01-30T00:43:10;78448.84;;;-147.22;78.92
74329;BME280;62749;51.982;5.916;2024-01-30T00:45:40;78444.81;;;-147.22;79.18
74329;BME280;62749;51.982;5.916;2024-01-30T00:48:09;78448.84;;;-147.22;78.86
74329;BME280;62749;51.982;5.916;2024-01-30T00:50:39;78446.81;;;-147.22;79.08
74329;BME280;62749;51.982;5.916;2024-01-30T00:53:08;78440.78;;;-147.22;79.37
74329;BME280;62749;51.982;5.916;2024-01-30T00:55:38;78436.75;;;-147.22;79.37
74329;BME280;62749;51.982;5.916;2024-01-30T00:58:07;78444.81;;;-147.22;78.33
74329;BME280;62749;51.982;5.916;2024-01-30T01:00:39;78446.81;;;-147.22;79.02
74329;BME280;62749;51.982;5.916;2024-01-30T01:03:09;78450.84;;;-147.22;78.85
74329;BME280;62749;51.982;5.916;2024-01-30T01:05:38;78456.91;;;-147.22;78.71
74329;BME280;62749;51.982;5.916;2024-01-30T01:08:08;78458.94;;;-147.22;79.04
74329;BME280;62749;51.982;5.916;2024-01-30T01:10:37;78460.94;;;-147.22;79.10
74329;BME280;62749;51.982;5.916;2024-01-30T01:13:07;78475.06;;;-147.22;78.36
74329;BME280;62749;51.982;5.916;2024-01-30T01:15:39;78475.06;;;-147.22;78.94
74329;BME280;62749;51.982;5.916;2024-01-30T01:18:08;78469.00;;;-147.22;79.38
74329;BME280;62749;51.982;5.916;2024-01-30T01:20:38;78475.06;;;-147.22;79.52
74329;BME280;62749;51.982;5.916;2024-01-30T01:23:07;78467.00;;;-147.22;79.79
74329;BME280;62749;51.982;5.916;2024-01-30T01:25:37;78464.97;;;-147.22;79.81
74329;BME280;62749;51.982;5.916;2024-01-30T01:28:06;78460.94;;;-147.22;79.61
74329;BME280;62749;51.982;5.916;2024-01-30T01:30:35;78464.97;;;-147.22;79.91
74329;BME280;62749;51.982;5.916;2024-01-30T01:33:08;78454.88;;;-147.22;79.88
74329;BME280;62749;51.982;5.916;2024-01-30T01:35:40;78454.88;;;-147.22;79.69
74329;BME280;62749;51.982;5.916;2024-01-30T01:38:10;78456.91;;;-147.22;79.26
74329;BME280;62749;51.982;5.916;2024-01-30T01:40:40;78452.88;;;-147.22;79.47
74329;BME280;62749;51.982;5.916;2024-01-30T01:43:10;78452.88;;;-147.22;79.42
74329;BME280;62749;51.982;5.916;2024-01-30T01:45:40;78475.06;;;-147.22;78.54
74329;BME280;62749;51.982;5.916;2024-01-30T01:48:12;78475.06;;;-147.22;79.08
74329;BME280;62749;51.982;5.916;2024-01-30T01:50:43;78473.03;;;-147.22;79.44
74329;BME280;62749;51.982;5.916;2024-01-30T01:53:13;78464.97;;;-147.22;79.48
74329;BME280;62749;51.982;5.916;2024-01-30T01:55:43;78467.00;;;-147.22;79.27
74329;BME280;62749;51.982;5.916;2024-01-30T01:58:21;78464.97;;;-147.22;79.01
74329;BME280;62749;51.982;5.916;2024-01-30T02:00:51;78471.03;;;-147.22;79.15
74329;BME280;62749;51.982;5.916;2024-01-30T02:03:24;78467.00;;;-147.22;79.32
74329;BME280;62749;51.982;5.916;2024-01-30T02:05:53;78467.00;;;-147.22;79.21
74329;BME280;62749;51.982;5.916;2024-01-30T02:08:24;78462.97;;;-147.22;79.50
74329;BME280;62749;51.982;5.916;2024-01-30T02:10:54;78460.94;;;-147.22;79.38
74329;BME280;62749;51.982;5.916;2024-01-30T02:13:23;78464.97;;;-147.22;79.52
74329;BME280;62749;51.982;5.916;2024-01-30T02:15:53;78460.94;;;-147.22;79.23
74329;BME280;62749;51.982;5.916;2024-01-30T02:18:25;78462.97;;;-147.22;79.38
74329;BME280;62749;51.982;5.916;2024-01-30T02:20:58;78460.94;;;-147.22;79.18
74329;BME280;62749;51.982;5.916;2024-01-30T02:23:33;78462.97;;;-147.22;79.22
74329;BME280;62749;51.982;5.916;2024-01-30T02:26:03;78458.94;;;-147.22;79.14
74329;BME280;62749;51.982;5.916;2024-01-30T02:28:33;78456.91;;;-147.22;79.33
74329;BME280;62749;51.982;5.916;2024-01-30T02:31:02;78460.94;;;-147.22;78.93
74329;BME280;62749;51.982;5.916;2024-01-30T02:33:32;78464.97;;;-147.22;79.15
74329;BME280;62749;51.982;5.916;2024-01-30T02:36:02;78458.94;;;-147.22;79.34
74329;BME280;62749;51.982;5.916;2024-01-30T02:38:34;78469.00;;;-147.22;79.33
74329;BME280;62749;51.982;5.916;2024-01-30T02:41:03;78464.97;;;-147.22;79.10
74329;BME280;62749;51.982;5.916;2024-01-30T02:43:33;78471.03;;;-147.22;79.34
74329;BME280;62749;51.982;5.916;2024-01-30T02:46:02;78460.94;;;-147.22;79.53
74329;BME280;62749;51.982;5.916;2024-01-30T02:48:32;78444.81;;;-147.22;79.59
74329;BME280;62749;51.982;5.916;2024-01-30T02:51:01;78442.78;;;-147.22;79.61
74329;BME280;62749;51.982;5.916;2024-01-30T02:53:33;78444.81;;;-147.22;79.28
74329;BME280;62749;51.982;5.916;2024-01-30T02:56:03;78448.84;;;-147.22;78.73
74329;BME280;62749;51.982;5.916;2024-01-30T02:58:36;78444.81;;;-147.22;79.13
74329;BME280;62749;51.982;5.916;2024-01-30T03:01:06;78440.78;;;-147.22;79.25
74329;BME280;62749;51.982;5.916;2024-01-30T03:03:36;78436.75;;;-147.22;79.38
74329;BME280;62749;51.982;5.916;2024-01-30T03:06:07;78426.66;;;-147.22;78.95
74329;BME280;62749;51.982;5.916;2024-01-30T03:08:39;78442.78;;;-147.22;77.89
74329;BME280;62749;51.982;5.916;2024-01-30T03:11:08;78444.81;;;-147.22;78.80
74329;BME280;62749;51.982;5.916;2024-01-30T03:13:38;78440.78;;;-147.22;78.71
74329;BME280;62749;51.982;5.916;2024-01-30T03:16:08;78448.84;;;-147.22;78.29
74329;BME280;62749;51.982;5.916;2024-01-30T03:18:37;78448.84;;;-147.22;78.73
74329;BME280;62749;51.982;5.916;2024-01-30T03:21:07;78434.72;;;-147.22;79.23
74329;BME280;62749;51.982;5.916;2024-01-30T03:23:39;78428.66;;;-147.22;79.09
74329;BME280;62749;51.982;5.916;2024-01-30T03:26:08;78436.75;;;-147.22;78.51
74329;BME280;62749;51.982;5.916;2024-01-30T03:28:39;78428.66;;;-147.22;78.56
74329;BME280;62749;51.982;5.916;2024-01-30T03:31:08;78438.75;;;-147.22;78.40
74329;BME280;62749;51.982;5.916;2024-01-30T03:33:38;78438.75;;;-147.22;78.58
74329;BME280;62749;51.982;5.916;2024-01-30T03:36:08;78438.75;;;-147.22;78.69
74329;BME280;62749;51.982;5.916;2024-01-30T03:38:40;78426.66;;;-147.22;78.91
74329;BME280;62749;51.982;5.916;2024-01-30T03:41:10;78424.63;;;-147.22;79.04
74329;BME280;62749;51.982;5.916;2024-01-30T03:43:40;78422.63;;;-147.22;78.39
74329;BME280;62749;51.982;5.916;2024-01-30T03:46:12;78424.63;;;-147.22;78.63
74329;BME280;62749;51.982;5.916;2024-01-30T03:48:41;78420.59;;;-147.22;78.21
74329;BME280;62749;51.982;5.916;2024-01-30T03:51:11;78418.59;;;-147.22;78.59
74329;BME280;62749;51.982;5.916;2024-01-30T03:53:45;78420.59;;;-147.22;78.63
74329;BME280;62749;51.982;5.916;2024-01-30T03:56:14;78418.59;;;-147.22;78.87
74329;BME280;62749;51.982;5.916;2024-01-30T03:58:44;78424.63;;;-147.22;79.07
74329;BME280;62749;51.982;5.916;2024-01-30T04:01:14;78410.53;;;-147.22;79.00
74329;BME280;62749;51.982;5.916;2024-01-30T04:03:43;78402.47;;;-147.22;78.75
74329;BME280;62749;51.982;5.916;2024-01-30T04:06:13;78388.34;;;-147.22;79.01
74329;BME280;62749;51.982;5.916;2024-01-30T04:08:45;78388.34;;;-147.22;78.72
74329;BME280;62749;51.982;5.916;2024-01-30T04:11:14;78404.47;;;-147.22;78.43
74329;BME280;62749;51.982;5.916;2024-01-30T04:13:44;78412.53;;;-147.22;78.63
74329;BME280;62749;51.982;5.916;2024-01-30T04:16:19;78406.50;;;-147.22;78.84
74329;BME280;62749;51.982;5.916;2024-01-30T04:18:50;78404.47;;;-147.22;79.01
74329;BME280;62749;51.982;5.916;2024-01-30T04:21:20;78416.56;;;-147.22;78.08
74329;BME280;62749;51.982;5.916;2024-01-30T04:23:53;78422.63;;;-147.22;78.89
74329;BME280;62749;51.982;5.916;2024-01-30T04:26:22;78418.59;;;-147.22;79.43
74329;BME280;62749;51.982;5.916;2024-01-30T04:28:52;78410.53;;;-147.22;79.36
74329;BME280;62749;51.982;5.916;2024-01-30T04:31:21;78402.47;;;-147.22;79.35
74329;BME280;62749;51.982;5.916;2024-01-30T04:33:51;78404.47;;;-147.22;78.82
74329;BME280;62749;51.982;5.916;2024-01-30T04:36:20;78406.50;;;-147.22;79.06
74329;BME280;62749;51.982;5.916;2024-01-30T04:38:50;78406.50;;;-147.22;79.21
74329;BME280;62749;51.982;5.916;2024-01-30T04:41:21;78404.47;;;-147.22;79.18
74329;BME280;62749;51.982;5.916;2024-01-30T04:43:52;78398.41;;;-147.22;79.35
74329;BME280;62749;51.982;5.916;2024-01-30T04:46:22;78412.53;;;-147.22;78.84
74329;BME280;62749;51.982;5.916;2024-01-30T04:48:51;78408.50;;;-147.22;79.32
74329;BME280;62749;51.982;5.916;2024-01-30T04:51:21;78394.38;;;-147.22;79.58
74329;BME280;62749;51.982;5.916;2024-01-30T04:53:50;78404.47;;;-147.22;79.21
74329;BME280;62749;51.982;5.916;2024-01-30T04:56:22;78396.41;;;-147.22;79.38
74329;BME280;62749;51.982;5.916;2024-01-30T04:58:52;78394.38;;;-147.22;79.16
74329;BME280;62749;51.982;5.916;2024-01-30T05:01:21;78392.38;;;-147.22;79.42
74329;BME280;62749;51.982;5.916;2024-01-30T05:03:50;78384.31;;;-147.22;79.42
74329;BME280;62749;51.982;5.916;2024-01-30T05:06:26;78386.31;;;-147.22;79.25
74329;BME280;62749;51.982;5.916;2024-01-30T05:08:56;78390.34;;;-147.22;79.50
74329;BME280;62749;51.982;5.916;2024-01-30T05:11:28;78384.31;;;-147.22;79.25
74329;BME280;62749;51.982;5.916;2024-01-30T05:13:57;78382.28;;;-147.22;79.37
74329;BME280;62749;51.982;5.916;2024-01-30T05:16:27;78376.25;;;-147.22;79.55
74329;BME280;62749;51.982;5.916;2024-01-30T05:18:56;78372.19;;;-147.22;79.43
74329;BME280;62749;51.982;5.916;2024-01-30T05:21:25;78366.16;;;-147.22;79.86
74329;BME280;62749;51.982;5.916;2024-01-30T05:23:55;78360.09;;;-147.22;79.71
74329;BME280;62749;51.982;5.916;2024-01-30T05:26:22;78374.22;;;-147.22;79.22
74329;BME280;62749;51.982;5.916;2024-01-30T05:28:54;78376.25;;;-147.22;79.43
74329;BME280;62749;51.982;5.916;2024-01-30T05:31:23;78376.25;;;-147.22;79.49
74329;BME280;62749;51.982;5.916;2024-01-30T05:33:54;78378.25;;;-147.22;79.50
74329;BME280;62749;51.982;5.916;2024-01-30T05:36:23;78370.19;;;-147.22;79.72
74329;BME280;62749;51.982;5.916;2024-01-30T05:38:53;78372.19;;;-147.22;79.47
74329;BME280;62749;51.982;5.916;2024-01-30T05:41:22;78380.28;;;-147.22;79.31
74329;BME280;62749;51.982;5.916;2024-01-30T05:43:57;78382.28;;;-147.22;79.55
74329;BME280;62749;51.982;5.916;2024-01-30T05:46:27;78374.22;;;-147.22;79.83
74329;BME280;62749;51.982;5.916;2024-01-30T05:48:56;78370.19;;;-147.22;79.75
74329;BME280;62749;51.982;5.916;2024-01-30T05:51:26;78372.19;;;-147.22;79.68
74329;BME280;62749;51.982;5.916;2024-01-30T05:53:56;78366.16;;;-147.22;79.94
74329;BME280;62749;51.982;5.916;2024-01-30T05:56:25;78352.03;;;-147.22;79.98
74329;BME280;62749;51.982;5.916;2024-01-30T05:58:58;78356.06;;;-147.22;79.78
74329;BME280;62749;51.982;5.916;2024-01-30T06:01:28;78352.03;;;-147.22;79.81
74329;BME280;62749;51.982;5.916;2024-01-30T06:03:57;78343.97;;;-147.22;79.67
74329;BME280;62749;51.982;5.916;2024-01-30T06:06:27;78337.91;;;-147.22;79.70
74329;BME280;62749;51.982;5.916;2024-01-30T06:08:57;78337.91;;;-147.22;79.64
74329;BME280;62749;51.982;5.916;2024-01-30T06:11:26;78337.91;;;-147.22;79.44
74329;BME280;62749;51.982;5.916;2024-01-30T06:13:58;78345.97;;;-147.22;79.21
74329;BME280;62749;51.982;5.916;2024-01-30T06:16:28;78352.03;;;-147.22;79.38
74329;BME280;62749;51.982;5.916;2024-01-30T06:18:58;78343.97;;;-147.22;79.47
74329;BME280;62749;51.982;5.916;2024-01-30T06:21:28;78329.84;;;-147.22;79.72
74329;BME280;62749;51.982;5.916;2024-01-30T06:23:58;78331.88;;;-147.22;79.52
74329;BME280;62749;51.982;5.916;2024-01-30T06:26:27;78337.91;;;-147.22;79.68
74329;BME280;62749;51.982;5.916;2024-01-30T06:28:59;78325.81;;;-147.22;79.77
74329;BME280;62749;51.982;5.916;2024-01-30T06:31:29;78327.84;;;-147.22;79.67
74329;BME280;62749;51.982;5.916;2024-01-30T06:33:58;78323.81;;;-147.22;79.72
74329;BME280;62749;51.982;5.916;2024-01-30T06:36:27;78329.84;;;-147.22;79.57
74329;BME280;62749;51.982;5.916;2024-01-30T06:38:57;78331.88;;;-147.22;79.77
74329;BME280;62749;51.982;5.916;2024-01-30T06:41:26;78315.72;;;-147.22;79.82
74329;BME280;62749;51.982;5.916;2024-01-30T06:43:58;78319.75;;;-147.22;79.59
74329;BME280;62749;51.982;5.916;2024-01-30T06:46:28;78327.84;;;-147.22;79.46
74329;BME280;62749;51.982;5.916;2024-01-30T06:48:57;78301.63;;;-147.22;80.60
74329;BME280;62749;51.982;5.916;2024-01-30T06:51:27;78297.59;;;-147.22;79.40
74329;BME280;62749;51.982;5.916;2024-01-30T06:53:57;78289.50;;;-147.22;79.37
74329;BME280;62749;51.982;5.916;2024-01-30T06:56:26;78271.38;;;-147.22;79.27
74329;BME280;62749;51.982;5.916;2024-01-30T06:58:58;78253.22;;;-147.22;79.98
74329;BME280;62749;51.982;5.916;2024-01-30T07:01:28;78249.19;;;-147.22;79.19
74329;BME280;62749;51.982;5.916;2024-01-30T07:03:59;78227.00;;;-147.22;78.85
74329;BME280;62749;51.982;5.916;2024-01-30T07:06:28;78227.00;;;-147.22;78.37
74329;BME280;62749;51.982;5.916;2024-01-30T07:08:57;78227.00;;;-147.22;78.16
74329;BME280;62749;51.982;5.916;2024-01-30T07:11:27;78214.91;;;-147.22;78.26
74329;BME280;62749;51.982;5.916;2024-01-30T07:13:59;78212.88;;;-147.22;77.86
74329;BME280;62749;51.982;5.916;2024-01-30T07:16:47;78208.84;;;-147.22;77.96
74329;BME280;62749;51.982;5.916;2024-01-30T07:19:16;78216.91;;;-147.22;77.98
74329;BME280;62749;51.982;5.916;2024-01-30T07:21:46;78208.84;;;-147.22;77.69
74329;BME280;62749;51.982;5.916;2024-01-30T07:24:15;78202.81;;;-147.22;77.60
74329;BME280;62749;51.982;5.916;2024-01-30T07:26:45;78202.81;;;-147.22;77.42
74329;BME280;62749;51.982;5.916;2024-01-30T07:29:17;78214.91;;;-147.22;77.39
74329;BME280;62749;51.982;5.916;2024-01-30T07:31:46;78204.81;;;-147.22;77.73
74329;BME280;62749;51.982;5.916;2024-01-30T07:34:16;78212.88;;;-147.22;77.41
74329;BME280;62749;51.982;5.916;2024-01-30T07:36:45;78192.72;;;-147.22;77.89
74329;BME280;62749;51.982;5.916;2024-01-30T07:39:15;78174.56;;;-147.22;77.59
74329;BME280;62749;51.982;5.916;2024-01-30T07:41:45;78176.59;;;-147.22;77.38
74329;BME280;62749;51.982;5.916;2024-01-30T07:44:17;78170.53;;;-147.22;77.52
74329;BME280;62749;51.982;5.916;2024-01-30T07:46:46;78162.47;;;-147.22;77.39
74329;BME280;62749;51.982;5.916;2024-01-30T07:49:16;78148.34;;;-147.22;77.36
74329;BME280;62749;51.982;5.916;2024-01-30T07:51:45;78148.34;;;-147.22;76.98
74329;BME280;62749;51.982;5.916;2024-01-30T07:54:15;78134.22;;;-147.22;76.94
74329;BME280;62749;51.982;5.916;2024-01-30T07:56:44;78134.22;;;-147.22;76.77
74329;BME280;62749;51.982;5.916;2024-01-30T07:59:16;78138.28;;;-147.22;76.71
74329;BME280;62749;51.982;5.916;2024-01-30T08:02:03;78120.13;;;-147.22;76.56
74329;BME280;62749;51.982;5.916;2024-01-30T08:04:32;78122.13;;;-147.22;76.40
74329;BME280;62749;51.982;5.916;2024-01-30T08:07:02;78126.16;;;-147.22;76.07
74329;BME280;62749;51.982;5.916;2024-01-30T08:09:32;78126.16;;;-147.22;76.30
74329;BME280;62749;51.982;5.916;2024-01-30T08:12:01;78120.13;;;-147.22;76.10
74329;BME280;62749;51.982;5.916;2024-01-30T08:14:33;78108.03;;;-147.22;75.72
74329;BME280;62749;51.982;5.916;2024-01-30T08:17:03;78110.03;;;-147.22;75.74
74329;BME280;62749;51.982;5.916;2024-01-30T08:19:33;78106.00;;;-147.22;75.60
74329;BME280;62749;51.982;5.916;2024-01-30T08:22:03;78106.00;;;-147.22;75.56
74329;BME280;62749;51.982;5.916;2024-01-30T08:24:33;78106.00;;;-147.22;75.74
74329;BME280;62749;51.982;5.916;2024-01-30T08:27:02;78085.84;;;-147.22;75.29
74329;BME280;62749;51.982;5.916;2024-01-30T08:29:35;78075.75;;;-147.22;74.88
74329;BME280;62749;51.982;5.916;2024-01-30T08:32:06;78077.78;;;-147.22;74.85
74329;BME280;62749;51.982;5.916;2024-01-30T08:34:49;78075.75;;;-147.22;74.92
74329;BME280;62749;51.982;5.916;2024-01-30T08:37:18;78063.66;;;-147.22;74.68
74329;BME280;62749;51.982;5.916;2024-01-30T08:39:48;78061.63;;;-147.22;74.60
74329;BME280;62749;51.982;5.916;2024-01-30T08:42:17;78059.63;;;-147.22;74.84
74329;BME280;62749;51.982;5.916;2024-01-30T08:44:51;78057.59;;;-147.22;74.69
74329;BME280;62749;51.982;5.916;2024-01-30T08:47:22;78047.53;;;-147.22;74.52
74329;BME280;62749;51.982;5.916;2024-01-30T08:49:51;78045.50;;;-147.22;74.33
74329;BME280;62749;51.982;5.916;2024-01-30T08:52:18;78045.50;;;-147.22;74.62
74329;BME280;62749;51.982;5.916;2024-01-30T08:54:48;78049.53;;;-147.22;74.49
74329;BME280;62749;51.982;5.916;2024-01-30T08:57:17;78041.47;;;-147.22;74.38
74329;BME280;62749;51.982;5.916;2024-01-30T08:59:47;78047.53;;;-147.22;74.46
74329;BME280;62749;51.982;5.916;2024-01-30T09:02:19;78035.41;;;-147.22;74.29
74329;BME280;62749;51.982;5.916;2024-01-30T09:04:48;78041.47;;;-147.22;74.33
74329;BME280;62749;51.982;5.916;2024-01-30T09:07:18;78037.44;;;-147.22;74.46
74329;BME280;62749;51.982;5.916;2024-01-30T09:09:47;78039.44;;;-147.22;74.43
74329;BME280;62749;51.982;5.916;2024-01-30T09:12:17;78037.44;;;-147.22;74.78
74329;BME280;62749;51.982;5.916;2024-01-30T09:14:46;78037.44;;;-147.22;74.94
74329;BME280;62749;51.982;5.916;2024-01-30T09:17:16;78025.34;;;-147.22;74.59
74329;BME280;62749;51.982;5.916;2024-01-30T09:19:48;78029.38;;;-147.22;74.50
74329;BME280;62749;51.982;5.916;2024-01-30T09:22:17;78023.31;;;-147.22;74.29
74329;BME280;62749;51.982;5.916;2024-01-30T09:24:47;78029.38;;;-147.22;74.44
74329;BME280;62749;51.982;5.916;2024-01-30T09:27:16;78015.25;;;-147.22;74.32
74329;BME280;62749;51.982;5.916;2024-01-30T09:29:46;78011.22;;;-147.22;74.12
74329;BME280;62749;51.982;5.916;2024-01-30T09:32:16;78019.28;;;-147.22;74.27
74329;BME280;62749;51.982;5.916;2024-01-30T09:34:48;78005.19;;;-147.22;74.12
74329;BME280;62749;51.982;5.916;2024-01-30T09:37:17;78017.28;;;-147.22;74.60
74329;BME280;62749;51.982;5.916;2024-01-30T09:39:47;78025.34;;;-147.22;74.66
74329;BME280;62749;51.982;5.916;2024-01-30T09:42:24;78007.19;;;-147.22;74.49
74329;BME280;62749;51.982;5.916;2024-01-30T09:44:56;78005.19;;;-147.22;74.35
74329;BME280;62749;51.982;5.916;2024-01-30T09:47:26;77995.09;;;-147.22;74.11
74329;BME280;62749;51.982;5.916;2024-01-30T09:49:58;78005.19;;;-147.22;74.22
74329;BME280;62749;51.982;5.916;2024-01-30T09:52:29;78005.19;;;-147.22;74.30
74329;BME280;62749;51.982;5.916;2024-01-30T09:55:00;77993.06;;;-147.22;74.22
74329;BME280;62749;51.982;5.916;2024-01-30T09:57:30;77993.06;;;-147.22;74.28
74329;BME280;62749;51.982;5.916;2024-01-30T09:59:59;77995.09;;;-147.22;74.61
74329;BME280;62749;51.982;5.916;2024-01-30T10:02:29;77989.03;;;-147.22;74.51
74329;BME280;62749;51.982;5.916;2024-01-30T10:05:01;77989.03;;;-147.22;74.28
74329;BME280;62749;51.982;5.916;2024-01-30T10:07:30;77978.97;;;-147.22;74.11
74329;BME280;62749;51.982;5.916;2024-01-30T10:10:00;77974.94;;;-147.22;73.99
74329;BME280;62749;51.982;5.916;2024-01-30T10:12:30;77974.94;;;-147.22;74.11
74329;BME280;62749;51.982;5.916;2024-01-30T10:14:59;77970.91;;;-147.22;74.27
74329;BME280;62749;51.982;5.916;2024-01-30T10:17:29;77964.84;;;-147.22;74.12
74329;BME280;62749;51.982;5.916;2024-01-30T10:20:04;77962.81;;;-147.22;74.34
74329;BME280;62749;51.982;5.916;2024-01-30T10:22:34;77956.78;;;-147.22;74.18
74329;BME280;62749;51.982;5.916;2024-01-30T10:25:04;77960.81;;;-147.22;74.27
74329;BME280;62749;51.982;5.916;2024-01-30T10:27:34;77954.75;;;-147.22;74.11
74329;BME280;62749;51.982;5.916;2024-01-30T10:30:05;77942.66;;;-147.22;73.91
74329;BME280;62749;51.982;5.916;2024-01-30T10:32:34;77948.72;;;-147.22;73.91
74329;BME280;62749;51.982;5.916;2024-01-30T10:35:07;77946.69;;;-147.22;73.91
74329;BME280;62749;51.982;5.916;2024-01-30T10:37:36;77936.59;;;-147.22;73.72
74329;BME280;62749;51.982;5.916;2024-01-30T10:40:09;77940.66;;;-147.22;73.78
74329;BME280;62749;51.982;5.916;2024-01-30T10:42:43;77934.59;;;-147.22;73.72
74329;BME280;62749;51.982;5.916;2024-01-30T10:45:14;77924.50;;;-147.22;73.71
74329;BME280;62749;51.982;5.916;2024-01-30T10:47:49;77922.50;;;-147.22;73.77
74329;BME280;62749;51.982;5.916;2024-01-30T10:50:24;77916.44;;;-147.22;73.46
74329;BME280;62749;51.982;5.916;2024-01-30T10:52:54;77912.41;;;-147.22;73.17
74329;BME280;62749;51.982;5.916;2024-01-30T10:55:28;77900.31;;;-147.22;72.93
74329;BME280;62749;51.982;5.916;2024-01-30T10:58:00;77892.25;;;-147.22;72.68
74329;BME280;62749;51.982;5.916;2024-01-30T11:00:29;77892.25;;;-147.22;72.61
74329;BME280;62749;51.982;5.916;2024-01-30T11:03:01;77888.22;;;-147.22;72.82
74329;BME280;62749;51.982;5.916;2024-01-30T11:05:34;77900.31;;;-147.22;73.04
74329;BME280;62749;51.982;5.916;2024-01-30T11:08:11;77904.34;;;-147.22;73.32
74329;BME280;62749;51.982;5.916;2024-01-30T11:10:55;77896.28;;;-147.22;73.14
74329;BME280;62749;51.982;5.916;2024-01-30T11:13:27;77892.25;;;-147.22;73.35
74329;BME280;62749;51.982;5.916;2024-01-30T11:16:00;77882.16;;;-147.22;72.98
74329;BME280;62749;51.982;5.916;2024-01-30T11:18:33;77868.06;;;-147.22;72.64
74329;BME280;62749;51.982;5.916;2024-01-30T11:21:07;77868.06;;;-147.22;72.87
74329;BME280;62749;51.982;5.916;2024-01-30T11:23:38;77859.97;;;-147.22;72.90
74329;BME280;62749;51.982;5.916;2024-01-30T11:26:10;77841.84;;;-147.22;72.40
74329;BME280;62749;51.982;5.916;2024-01-30T11:28:40;77839.81;;;-147.22;71.94
74329;BME280;62749;51.982;5.916;2024-01-30T11:31:19;77847.88;;;-147.22;72.12
74329;BME280;62749;51.982;5.916;2024-01-30T11:33:52;77845.88;;;-147.22;71.89
74329;BME280;62749;51.982;5.916;2024-01-30T11:36:25;77845.88;;;-147.22;72.00
74329;BME280;62749;51.982;5.916;2024-01-30T11:38:56;77841.84;;;-147.22;71.85
74329;BME280;62749;51.982;5.916;2024-01-30T11:41:26;77839.81;;;-147.22;71.56
74329;BME280;62749;51.982;5.916;2024-01-30T11:43:57;77845.88;;;-147.22;71.29
74329;BME280;62749;51.982;5.916;2024-01-30T11:46:26;77835.78;;;-147.22;71.25
74329;BME280;62749;51.982;5.916;2024-01-30T11:48:56;77845.88;;;-147.22;70.68
74329;BME280;62749;51.982;5.916;2024-01-30T11:51:30;77837.81;;;-147.22;70.76
74329;BME280;62749;51.982;5.916;2024-01-30T11:54:00;77835.78;;;-147.22;70.57
74329;BME280;62749;51.982;5.916;2024-01-30T11:56:29;77819.66;;;-147.22;70.40
74329;BME280;62749;51.982;5.916;2024-01-30T11:58:59;77809.56;;;-147.22;70.26
74329;BME280;62749;51.982;5.916;2024-01-30T12:01:29;77807.56;;;-147.22;69.58
74329;BME280;62749;51.982;5.916;2024-01-30T12:03:59;77823.69;;;-147.22;69.18
74329;BME280;62749;51.982;5.916;2024-01-30T12:06:32;77813.59;;;-147.22;69.34
74329;BME280;62749;51.982;5.916;2024-01-30T12:09:03;77819.66;;;-147.22;69.28
74329;BME280;62749;51.982;5.916;2024-01-30T12:11:43;77823.69;;;-147.22;69.13
74329;BME280;62749;51.982;5.916;2024-01-30T12:14:14;77829.72;;;-147.22;69.51
74329;BME280;62749;51.982;5.916;2024-01-30T12:16:48;77819.66;;;-147.22;69.25
74329;BME280;62749;51.982;5.916;2024-01-30T12:19:24;77817.63;;;-147.22;69.11
74329;BME280;62749;51.982;5.916;2024-01-30T12:21:57;77817.63;;;-147.22;69.03
74329;BME280;62749;51.982;5.916;2024-01-30T12:24:27;77817.63;;;-147.22;68.41
74329;BME280;62749;51.982;5.916;2024-01-30T12:26:57;77827.72;;;-147.22;68.62
74329;BME280;62749;51.982;5.916;2024-01-30T12:29:27;77831.75;;;-147.22;68.18
74329;BME280;62749;51.982;5.916;2024-01-30T12:32:00;77829.72;;;-147.22;67.70
74329;BME280;62749;51.982;5.916;2024-01-30T12:34:30;77831.75;;;-147.22;67.48
74329;BME280;62749;51.982;5.916;2024-01-30T12:37:02;77815.63;;;-147.22;65.92
74329;BME280;62749;51.982;5.916;2024-01-30T12:39:33;77801.50;;;-147.22;64.92
74329;BME280;62749;51.982;5.916;2024-01-30T12:42:03;77815.63;;;-147.22;64.89
74329;BME280;62749;51.982;5.916;2024-01-30T12:44:32;77862.00;;;-147.22;66.16
74329;BME280;62749;51.982;5.916;2024-01-30T12:47:03;77896.28;;;-147.22;66.69
74329;BME280;62749;51.982;5.916;2024-01-30T12:49:32;77920.47;;;-147.22;67.41
74329;BME280;62749;51.982;5.916;2024-01-30T12:52:05;77940.66;;;-147.22;67.67
74329;BME280;62749;51.982;5.916;2024-01-30T12:54:34;77940.66;;;-147.22;67.87
74329;BME280;62749;51.982;5.916;2024-01-30T12:57:04;77942.66;;;-147.22;67.31